sensor_id;sensor_type;location;lat;lon;timestamp;temperature;humidity
46732;DHT22;32477;51.474;5.696;2023-05-15T00:01:30;12.20;99.90
46732;DHT22;32477;51.474;5.696;2023-05-15T00:03:56;12.20;99.90
46732;DHT22;32477;51.474;5.696;2023-05-15T00:06:22;12.20;99.90
46732;DHT22;32477;51.474;5.696;2023-05-15T00:08:47;12.20;99.90
46732;DHT22;32477;51.474;5.696;2023-05-15T00:11:13;12.20;99.90
46732;DHT22;32477;51.474;5.696;2023-05-15T00:13:39;12.10;99.90
46732;DHT22;32477;51.474;5.696;2023-05-15T00:16:08;12.10;99.90
46732;DHT22;32477;51.474;5.696;2023-05-15T00:18:33;12.10;99.90
46732;DHT22;32477;51.474;5.696;2023-05-15T00:20:59;12.10;99.90
46732;DHT22;32477;51.474;5.696;2023-05-15T00:23:25;12.00;99.90
46732;DHT22;32477;51.474;5.696;2023-05-15T00:25:51;12.00;99.90
46732;DHT22;32477;51.474;5.696;2023-05-15T00:28:16;12.00;99.90
46732;DHT22;32477;51.474;5.696;2023-05-15T00:30:42;11.90;99.90
46732;DHT22;32477;51.474;5.696;2023-05-15T00:33:08;11.80;99.90
46732;DHT22;32477;51.474;5.696;2023-05-15T00:35:33;11.80;99.90
46732;DHT22;32477;51.474;5.696;2023-05-15T00:37:59;11.80;99.90
46732;DHT22;32477;51.474;5.696;2023-05-15T00:40:26;11.70;99.90
46732;DHT22;32477;51.474;5.696;2023-05-15T00:42:52;11.70;99.90
46732;DHT22;32477;51.474;5.696;2023-05-15T00:45:18;11.70;99.90
46732;DHT22;32477;51.474;5.696;2023-05-15T00:47:46;11.70;99.90
46732;DHT22;32477;51.474;5.696;2023-05-15T00:50:12;11.60;99.90
46732;DHT22;32477;51.474;5.696;2023-05-15T00:52:39;11.50;99.90
46732;DHT22;32477;51.474;5.696;2023-05-15T00:55:05;11.50;99.90
46732;DHT22;32477;51.474;5.696;2023-05-15T00:57:31;11.40;99.90
46732;DHT22;32477;51.474;5.696;2023-05-15T00:59:58;11.40;99.90
46732;DHT22;32477;51.474;5.696;2023-05-15T01:02:25;11.40;99.90
46732;DHT22;32477;51.474;5.696;2023-05-15T01:04:51;11.40;99.90
46732;DHT22;32477;51.474;5.696;2023-05-15T01:07:17;11.40;99.90
46732;DHT22;32477;51.474;5.696;2023-05-15T01:09:43;11.40;99.90
46732;DHT22;32477;51.474;5.696;2023-05-15T01:12:10;11.30;99.90
46732;DHT22;32477;51.474;5.696;2023-05-15T01:14:39;11.30;99.90
46732;DHT22;32477;51.474;5.696;2023-05-15T01:17:05;11.20;99.90
46732;DHT22;32477;51.474;5.696;2023-05-15T01:19:30;11.20;99.90
46732;DHT22;32477;51.474;5.696;2023-05-15T01:22:04;11.10;99.90
46732;DHT22;32477;51.474;5.696;2023-05-15T01:30:16;11.10;99.90
46732;DHT22;32477;51.474;5.696;2023-05-15T01:38:26;11.00;99.90
46732;DHT22;32477;51.474;5.696;2023-05-15T01:40:52;11.00;99.90
46732;DHT22;32477;51.474;5.696;2023-05-15T01:43:23;11.00;99.90
46732;DHT22;32477;51.474;5.696;2023-05-15T01:45:52;11.00;99.90
46732;DHT22;32477;51.474;5.696;2023-05-15T01:48:19;10.90;99.90
46732;DHT22;32477;51.474;5.696;2023-05-15T01:50:45;10.90;99.90
46732;DHT22;32477;51.474;5.696;2023-05-15T01:53:11;10.90;99.90
46732;DHT22;32477;51.474;5.696;2023-05-15T01:55:39;10.90;99.90
46732;DHT22;32477;51.474;5.696;2023-05-15T01:58:06;10.90;99.90
46732;DHT22;32477;51.474;5.696;2023-05-15T02:00:33;10.90;99.90
46732;DHT22;32477;51.474;5.696;2023-05-15T02:03:00;10.90;99.90
46732;DHT22;32477;51.474;5.696;2023-05-15T02:05:26;10.80;99.90
46732;DHT22;32477;51.474;5.696;2023-05-15T02:07:52;10.80;99.90
46732;DHT22;32477;51.474;5.696;2023-05-15T02:10:18;10.70;99.90
46732;DHT22;32477;51.474;5.696;2023-05-15T02:12:44;10.70;99.90
46732;DHT22;32477;51.474;5.696;2023-05-15T02:15:11;10.70;99.90
46732;DHT22;32477;51.474;5.696;2023-05-15T02:17:37;10.60;99.90
46732;DHT22;32477;51.474;5.696;2023-05-15T02:20:03;10.60;99.90
46732;DHT22;32477;51.474;5.696;2023-05-15T02:22:32;10.60;99.90
46732;DHT22;32477;51.474;5.696;2023-05-15T02:24:58;10.60;99.90
46732;DHT22;32477;51.474;5.696;2023-05-15T02:27:27;10.50;99.90
46732;DHT22;32477;51.474;5.696;2023-05-15T02:35:58;10.40;99.90
46732;DHT22;32477;51.474;5.696;2023-05-15T02:38:36;10.30;99.90
46732;DHT22;32477;51.474;5.696;2023-05-15T02:41:02;10.30;99.90
46732;DHT22;32477;51.474;5.696;2023-05-15T02:43:29;10.30;99.90
46732;DHT22;32477;51.474;5.696;2023-05-15T02:45:56;10.30;99.90
46732;DHT22;32477;51.474;5.696;2023-05-15T02:48:24;10.20;99.90
46732;DHT22;32477;51.474;5.696;2023-05-15T02:50:51;10.20;99.90
46732;DHT22;32477;51.474;5.696;2023-05-15T02:53:17;10.20;99.90
46732;DHT22;32477;51.474;5.696;2023-05-15T02:55:42;10.20;99.90
46732;DHT22;32477;51.474;5.696;2023-05-15T02:58:08;10.10;99.90
46732;DHT22;32477;51.474;5.696;2023-05-15T03:00:34;10.20;99.90
46732;DHT22;32477;51.474;5.696;2023-05-15T03:03:00;10.10;99.90
46732;DHT22;32477;51.474;5.696;2023-05-15T03:05:25;10.00;99.90
46732;DHT22;32477;51.474;5.696;2023-05-15T03:07:51;10.00;99.90
46732;DHT22;32477;51.474;5.696;2023-05-15T03:10:17;10.10;99.90
46732;DHT22;32477;51.474;5.696;2023-05-15T03:12:42;10.10;99.90
46732;DHT22;32477;51.474;5.696;2023-05-15T03:15:08;10.10;99.90
46732;DHT22;32477;51.474;5.696;2023-05-15T03:17:34;10.10;99.90
46732;DHT22;32477;51.474;5.696;2023-05-15T03:19:59;10.00;99.90
46732;DHT22;32477;51.474;5.696;2023-05-15T03:22:25;10.00;99.90
46732;DHT22;32477;51.474;5.696;2023-05-15T03:24:51;10.00;99.90
46732;DHT22;32477;51.474;5.696;2023-05-15T03:27:16;10.00;99.90
46732;DHT22;32477;51.474;5.696;2023-05-15T03:29:42;10.00;99.90
46732;DHT22;32477;51.474;5.696;2023-05-15T03:32:08;9.90;99.90
46732;DHT22;32477;51.474;5.696;2023-05-15T03:34:33;9.90;99.90
46732;DHT22;32477;51.474;5.696;2023-05-15T03:36:59;9.90;99.90
46732;DHT22;32477;51.474;5.696;2023-05-15T03:39:25;9.90;99.90
46732;DHT22;32477;51.474;5.696;2023-05-15T03:41:50;9.90;99.90
46732;DHT22;32477;51.474;5.696;2023-05-15T03:44:16;9.90;99.90
46732;DHT22;32477;51.474;5.696;2023-05-15T03:46:42;9.90;99.90
46732;DHT22;32477;51.474;5.696;2023-05-15T03:49:07;9.90;99.90
46732;DHT22;32477;51.474;5.696;2023-05-15T03:51:33;9.90;99.90
46732;DHT22;32477;51.474;5.696;2023-05-15T03:53:59;9.90;99.90
46732;DHT22;32477;51.474;5.696;2023-05-15T03:56:25;9.80;99.90
46732;DHT22;32477;51.474;5.696;2023-05-15T03:58:51;9.80;99.90
46732;DHT22;32477;51.474;5.696;2023-05-15T04:01:17;9.80;99.90
46732;DHT22;32477;51.474;5.696;2023-05-15T04:03:43;9.80;99.90
46732;DHT22;32477;51.474;5.696;2023-05-15T04:06:08;9.80;99.90
46732;DHT22;32477;51.474;5.696;2023-05-15T04:08:34;9.70;99.90
46732;DHT22;32477;51.474;5.696;2023-05-15T04:10:59;9.80;99.90
46732;DHT22;32477;51.474;5.696;2023-05-15T04:13:25;9.80;99.90
46732;DHT22;32477;51.474;5.696;2023-05-15T04:15:51;9.80;99.90
46732;DHT22;32477;51.474;5.696;2023-05-15T04:18:18;9.80;99.90
46732;DHT22;32477;51.474;5.696;2023-05-15T04:20:43;9.80;99.90
46732;DHT22;32477;51.474;5.696;2023-05-15T04:23:09;9.80;99.90
46732;DHT22;32477;51.474;5.696;2023-05-15T04:25:35;9.80;99.90
46732;DHT22;32477;51.474;5.696;2023-05-15T04:28:00;9.80;99.90
46732;DHT22;32477;51.474;5.696;2023-05-15T04:30:26;9.80;99.90
46732;DHT22;32477;51.474;5.696;2023-05-15T04:32:52;9.80;99.90
46732;DHT22;32477;51.474;5.696;2023-05-15T04:35:17;9.80;99.90
46732;DHT22;32477;51.474;5.696;2023-05-15T04:37:43;9.90;99.90
46732;DHT22;32477;51.474;5.696;2023-05-15T04:40:12;9.90;99.90
46732;DHT22;32477;51.474;5.696;2023-05-15T04:42:40;10.00;99.90
46732;DHT22;32477;51.474;5.696;2023-05-15T04:45:06;9.90;99.90
46732;DHT22;32477;51.474;5.696;2023-05-15T04:47:34;10.00;99.90
46732;DHT22;32477;51.474;5.696;2023-05-15T04:49:59;10.00;99.90
46732;DHT22;32477;51.474;5.696;2023-05-15T04:52:25;10.00;99.90
46732;DHT22;32477;51.474;5.696;2023-05-15T04:54:51;10.10;99.90
46732;DHT22;32477;51.474;5.696;2023-05-15T04:57:17;10.20;99.90
46732;DHT22;32477;51.474;5.696;2023-05-15T04:59:43;10.20;99.90
46732;DHT22;32477;51.474;5.696;2023-05-15T05:02:09;10.30;99.90
46732;DHT22;32477;51.474;5.696;2023-05-15T05:04:35;10.30;99.90
46732;DHT22;32477;51.474;5.696;2023-05-15T05:07:00;10.40;99.90
46732;DHT22;32477;51.474;5.696;2023-05-15T05:09:28;10.40;99.90
46732;DHT22;32477;51.474;5.696;2023-05-15T05:11:54;10.60;99.90
46732;DHT22;32477;51.474;5.696;2023-05-15T05:14:20;10.60;99.90
46732;DHT22;32477;51.474;5.696;2023-05-15T05:16:46;10.70;99.90
46732;DHT22;32477;51.474;5.696;2023-05-15T05:19:12;10.80;99.90
46732;DHT22;32477;51.474;5.696;2023-05-15T05:21:37;10.80;99.90
46732;DHT22;32477;51.474;5.696;2023-05-15T05:24:03;10.80;99.90
46732;DHT22;32477;51.474;5.696;2023-05-15T05:26:29;10.60;99.90
46732;DHT22;32477;51.474;5.696;2023-05-15T05:28:54;10.60;99.90
46732;DHT22;32477;51.474;5.696;2023-05-15T05:31:20;10.60;99.90
46732;DHT22;32477;51.474;5.696;2023-05-15T05:33:46;10.60;99.90
46732;DHT22;32477;51.474;5.696;2023-05-15T05:36:14;10.70;99.90
46732;DHT22;32477;51.474;5.696;2023-05-15T05:38:40;10.80;99.90
46732;DHT22;32477;51.474;5.696;2023-05-15T05:41:05;11.00;99.90
46732;DHT22;32477;51.474;5.696;2023-05-15T05:43:31;11.20;99.90
46732;DHT22;32477;51.474;5.696;2023-05-15T05:45:57;11.60;99.90
46732;DHT22;32477;51.474;5.696;2023-05-15T05:48:23;12.10;99.90
46732;DHT22;32477;51.474;5.696;2023-05-15T05:50:48;12.50;99.90
46732;DHT22;32477;51.474;5.696;2023-05-15T05:53:14;12.80;99.90
46732;DHT22;32477;51.474;5.696;2023-05-15T05:55:40;13.20;99.90
46732;DHT22;32477;51.474;5.696;2023-05-15T05:58:06;13.30;99.90
46732;DHT22;32477;51.474;5.696;2023-05-15T06:00:31;13.50;99.90
46732;DHT22;32477;51.474;5.696;2023-05-15T06:02:58;13.80;99.90
46732;DHT22;32477;51.474;5.696;2023-05-15T06:05:25;14.00;99.90
46732;DHT22;32477;51.474;5.696;2023-05-15T06:07:54;13.80;99.90
46732;DHT22;32477;51.474;5.696;2023-05-15T06:10:20;13.90;99.90
46732;DHT22;32477;51.474;5.696;2023-05-15T06:12:47;13.40;99.90
46732;DHT22;32477;51.474;5.696;2023-05-15T06:15:14;13.40;99.90
46732;DHT22;32477;51.474;5.696;2023-05-15T06:17:40;13.30;99.90
46732;DHT22;32477;51.474;5.696;2023-05-15T06:20:06;13.00;99.90
46732;DHT22;32477;51.474;5.696;2023-05-15T06:22:33;12.80;99.90
46732;DHT22;32477;51.474;5.696;2023-05-15T06:25:00;12.90;99.90
46732;DHT22;32477;51.474;5.696;2023-05-15T06:27:27;13.10;99.90
46732;DHT22;32477;51.474;5.696;2023-05-15T06:29:53;13.30;99.90
46732;DHT22;32477;51.474;5.696;2023-05-15T06:32:19;14.00;99.90
46732;DHT22;32477;51.474;5.696;2023-05-15T06:34:45;14.20;99.90
46732;DHT22;32477;51.474;5.696;2023-05-15T06:37:10;14.90;99.90
46732;DHT22;32477;51.474;5.696;2023-05-15T06:39:36;15.90;99.90
46732;DHT22;32477;51.474;5.696;2023-05-15T06:42:02;16.50;99.90
46732;DHT22;32477;51.474;5.696;2023-05-15T06:44:29;16.80;99.90
46732;DHT22;32477;51.474;5.696;2023-05-15T06:46:55;17.30;99.90
46732;DHT22;32477;51.474;5.696;2023-05-15T06:49:21;17.50;99.90
46732;DHT22;32477;51.474;5.696;2023-05-15T06:51:46;17.40;99.90
46732;DHT22;32477;51.474;5.696;2023-05-15T06:54:13;16.60;99.90
46732;DHT22;32477;51.474;5.696;2023-05-15T06:56:39;16.80;99.90
46732;DHT22;32477;51.474;5.696;2023-05-15T06:59:04;17.10;99.90
46732;DHT22;32477;51.474;5.696;2023-05-15T07:01:30;17.80;99.90
46732;DHT22;32477;51.474;5.696;2023-05-15T07:03:56;18.00;99.90
46732;DHT22;32477;51.474;5.696;2023-05-15T07:06:22;17.80;99.90
46732;DHT22;32477;51.474;5.696;2023-05-15T07:08:48;17.90;99.90
46732;DHT22;32477;51.474;5.696;2023-05-15T07:11:14;17.80;99.90
46732;DHT22;32477;51.474;5.696;2023-05-15T07:13:39;18.30;99.90
46732;DHT22;32477;51.474;5.696;2023-05-15T07:16:05;18.40;99.90
46732;DHT22;32477;51.474;5.696;2023-05-15T07:18:31;18.40;99.90
46732;DHT22;32477;51.474;5.696;2023-05-15T07:20:57;18.20;99.90
46732;DHT22;32477;51.474;5.696;2023-05-15T07:23:22;18.80;99.90
46732;DHT22;32477;51.474;5.696;2023-05-15T07:25:48;18.90;99.90
46732;DHT22;32477;51.474;5.696;2023-05-15T07:28:14;19.00;99.90
46732;DHT22;32477;51.474;5.696;2023-05-15T07:30:40;19.60;99.90
46732;DHT22;32477;51.474;5.696;2023-05-15T07:33:05;20.20;99.90
46732;DHT22;32477;51.474;5.696;2023-05-15T07:35:31;20.10;99.90
46732;DHT22;32477;51.474;5.696;2023-05-15T07:37:57;20.50;99.90
46732;DHT22;32477;51.474;5.696;2023-05-15T07:40:22;20.70;99.90
46732;DHT22;32477;51.474;5.696;2023-05-15T07:42:48;20.50;99.90
46732;DHT22;32477;51.474;5.696;2023-05-15T07:45:14;20.70;99.90
46732;DHT22;32477;51.474;5.696;2023-05-15T07:47:46;21.00;99.90
46732;DHT22;32477;51.474;5.696;2023-05-15T07:50:12;21.30;99.90
46732;DHT22;32477;51.474;5.696;2023-05-15T07:52:38;21.70;99.90
46732;DHT22;32477;51.474;5.696;2023-05-15T07:55:04;21.50;98.60
46732;DHT22;32477;51.474;5.696;2023-05-15T07:57:30;21.20;98.00
46732;DHT22;32477;51.474;5.696;2023-05-15T07:59:56;21.00;98.20
46732;DHT22;32477;51.474;5.696;2023-05-15T08:02:22;21.20;97.90
46732;DHT22;32477;51.474;5.696;2023-05-15T08:04:48;21.60;97.80
46732;DHT22;32477;51.474;5.696;2023-05-15T08:07:13;22.10;97.40
46732;DHT22;32477;51.474;5.696;2023-05-15T08:09:39;22.20;96.80
46732;DHT22;32477;51.474;5.696;2023-05-15T08:12:21;21.90;96.70
46732;DHT22;32477;51.474;5.696;2023-05-15T08:14:51;21.40;96.60
46732;DHT22;32477;51.474;5.696;2023-05-15T08:17:17;21.50;97.40
46732;DHT22;32477;51.474;5.696;2023-05-15T08:19:43;21.90;97.50
46732;DHT22;32477;51.474;5.696;2023-05-15T08:22:09;22.20;96.60
46732;DHT22;32477;51.474;5.696;2023-05-15T08:24:35;22.80;95.80
46732;DHT22;32477;51.474;5.696;2023-05-15T08:27:00;22.60;94.20
46732;DHT22;32477;51.474;5.696;2023-05-15T08:29:26;23.00;94.70
46732;DHT22;32477;51.474;5.696;2023-05-15T08:31:52;23.60;93.80
46732;DHT22;32477;51.474;5.696;2023-05-15T08:34:17;23.40;92.20
46732;DHT22;32477;51.474;5.696;2023-05-15T08:36:43;22.30;93.40
46732;DHT22;32477;51.474;5.696;2023-05-15T08:39:09;23.30;93.10
46732;DHT22;32477;51.474;5.696;2023-05-15T08:41:47;23.70;92.50
46732;DHT22;32477;51.474;5.696;2023-05-15T08:44:15;23.70;91.70
46732;DHT22;32477;51.474;5.696;2023-05-15T08:46:42;23.70;91.50
46732;DHT22;32477;51.474;5.696;2023-05-15T08:49:32;24.00;91.10
46732;DHT22;32477;51.474;5.696;2023-05-15T08:52:00;24.10;90.20
46732;DHT22;32477;51.474;5.696;2023-05-15T08:54:26;24.00;90.80
46732;DHT22;32477;51.474;5.696;2023-05-15T08:56:52;23.90;89.80
46732;DHT22;32477;51.474;5.696;2023-05-15T08:59:18;24.50;90.30
46732;DHT22;32477;51.474;5.696;2023-05-15T09:01:44;24.80;89.70
46732;DHT22;32477;51.474;5.696;2023-05-15T09:04:10;24.90;87.80
46732;DHT22;32477;51.474;5.696;2023-05-15T09:06:36;24.90;87.70
46732;DHT22;32477;51.474;5.696;2023-05-15T09:09:03;24.70;86.70
46732;DHT22;32477;51.474;5.696;2023-05-15T09:11:31;25.00;87.80
46732;DHT22;32477;51.474;5.696;2023-05-15T09:13:59;24.80;86.30
46732;DHT22;32477;51.474;5.696;2023-05-15T09:16:26;25.40;86.00
46732;DHT22;32477;51.474;5.696;2023-05-15T09:18:52;25.40;84.80
46732;DHT22;32477;51.474;5.696;2023-05-15T09:21:36;24.40;87.00
46732;DHT22;32477;51.474;5.696;2023-05-15T09:24:19;25.20;85.70
46732;DHT22;32477;51.474;5.696;2023-05-15T09:26:47;25.40;84.90
46732;DHT22;32477;51.474;5.696;2023-05-15T09:29:26;24.90;85.50
46732;DHT22;32477;51.474;5.696;2023-05-15T09:31:52;24.80;84.90
46732;DHT22;32477;51.474;5.696;2023-05-15T09:34:18;25.30;83.60
46732;DHT22;32477;51.474;5.696;2023-05-15T09:36:43;25.40;83.00
46732;DHT22;32477;51.474;5.696;2023-05-15T09:39:09;25.30;82.80
46732;DHT22;32477;51.474;5.696;2023-05-15T09:41:40;25.00;83.40
46732;DHT22;32477;51.474;5.696;2023-05-15T09:44:17;25.70;83.60
46732;DHT22;32477;51.474;5.696;2023-05-15T09:46:43;26.10;81.90
46732;DHT22;32477;51.474;5.696;2023-05-15T09:49:08;26.00;82.80
46732;DHT22;32477;51.474;5.696;2023-05-15T09:51:34;25.20;83.60
46732;DHT22;32477;51.474;5.696;2023-05-15T09:54:00;24.40;85.40
46732;DHT22;32477;51.474;5.696;2023-05-15T09:56:25;24.20;86.10
46732;DHT22;32477;51.474;5.696;2023-05-15T10:01:22;24.90;85.40
46732;DHT22;32477;51.474;5.696;2023-05-15T10:03:58;23.60;83.10
46732;DHT22;32477;51.474;5.696;2023-05-15T10:06:24;22.40;89.30
46732;DHT22;32477;51.474;5.696;2023-05-15T10:08:53;23.10;90.20
46732;DHT22;32477;51.474;5.696;2023-05-15T10:11:19;23.40;88.90
46732;DHT22;32477;51.474;5.696;2023-05-15T10:13:48;23.10;89.80
46732;DHT22;32477;51.474;5.696;2023-05-15T10:16:14;24.40;88.50
46732;DHT22;32477;51.474;5.696;2023-05-15T10:18:40;24.20;86.10
46732;DHT22;32477;51.474;5.696;2023-05-15T10:21:08;24.50;85.30
46732;DHT22;32477;51.474;5.696;2023-05-15T10:23:35;25.10;83.70
46732;DHT22;32477;51.474;5.696;2023-05-15T10:26:06;25.20;84.20
46732;DHT22;32477;51.474;5.696;2023-05-15T10:28:34;25.60;83.20
46732;DHT22;32477;51.474;5.696;2023-05-15T10:31:00;25.60;83.70
46732;DHT22;32477;51.474;5.696;2023-05-15T10:33:28;25.70;84.50
46732;DHT22;32477;51.474;5.696;2023-05-15T10:35:55;25.40;83.70
46732;DHT22;32477;51.474;5.696;2023-05-15T10:38:21;24.60;86.70
46732;DHT22;32477;51.474;5.696;2023-05-15T10:40:48;23.60;89.60
46732;DHT22;32477;51.474;5.696;2023-05-15T10:43:18;23.30;90.50
46732;DHT22;32477;51.474;5.696;2023-05-15T10:45:45;23.10;91.60
46732;DHT22;32477;51.474;5.696;2023-05-15T10:48:12;22.80;92.40
46732;DHT22;32477;51.474;5.696;2023-05-15T10:50:38;22.40;92.50
46732;DHT22;32477;51.474;5.696;2023-05-15T10:53:04;22.10;93.10
46732;DHT22;32477;51.474;5.696;2023-05-15T10:55:30;21.70;93.80
46732;DHT22;32477;51.474;5.696;2023-05-15T10:57:56;21.50;95.10
46732;DHT22;32477;51.474;5.696;2023-05-15T11:02:48;21.10;96.90
46732;DHT22;32477;51.474;5.696;2023-05-15T11:05:14;20.40;98.60
46732;DHT22;32477;51.474;5.696;2023-05-15T11:07:40;20.40;98.80
46732;DHT22;32477;51.474;5.696;2023-05-15T11:10:35;20.30;99.20
46732;DHT22;32477;51.474;5.696;2023-05-15T11:13:02;20.20;99.00
46732;DHT22;32477;51.474;5.696;2023-05-15T11:15:44;20.40;99.70
46732;DHT22;32477;51.474;5.696;2023-05-15T11:18:10;20.30;99.90
46732;DHT22;32477;51.474;5.696;2023-05-15T11:23:14;19.80;99.90
46732;DHT22;32477;51.474;5.696;2023-05-15T11:25:39;19.90;99.90
46732;DHT22;32477;51.474;5.696;2023-05-15T11:28:05;19.80;99.90
46732;DHT22;32477;51.474;5.696;2023-05-15T11:30:38;19.90;99.90
46732;DHT22;32477;51.474;5.696;2023-05-15T11:33:06;19.70;99.90
46732;DHT22;32477;51.474;5.696;2023-05-15T11:35:40;19.60;99.90
46732;DHT22;32477;51.474;5.696;2023-05-15T11:38:15;19.10;99.90
46732;DHT22;32477;51.474;5.696;2023-05-15T11:40:53;19.70;99.90
46732;DHT22;32477;51.474;5.696;2023-05-15T11:43:34;20.10;99.90
46732;DHT22;32477;51.474;5.696;2023-05-15T11:46:06;20.60;99.90
46732;DHT22;32477;51.474;5.696;2023-05-15T11:48:40;20.50;99.90
46732;DHT22;32477;51.474;5.696;2023-05-15T11:53:44;20.80;99.90
46732;DHT22;32477;51.474;5.696;2023-05-15T11:56:20;20.80;99.90
46732;DHT22;32477;51.474;5.696;2023-05-15T11:58:55;20.30;99.90
46732;DHT22;32477;51.474;5.696;2023-05-15T12:01:21;20.60;99.90
46732;DHT22;32477;51.474;5.696;2023-05-15T12:03:47;20.50;99.90
46732;DHT22;32477;51.474;5.696;2023-05-15T12:06:14;20.50;99.90
46732;DHT22;32477;51.474;5.696;2023-05-15T12:08:40;20.20;99.90
46732;DHT22;32477;51.474;5.696;2023-05-15T12:11:10;19.90;99.90
46732;DHT22;32477;51.474;5.696;2023-05-15T12:13:36;19.50;99.90
46732;DHT22;32477;51.474;5.696;2023-05-15T12:16:03;19.40;99.90
46732;DHT22;32477;51.474;5.696;2023-05-15T12:18:30;19.20;99.90
46732;DHT22;32477;51.474;5.696;2023-05-15T12:20:56;19.50;99.90
46732;DHT22;32477;51.474;5.696;2023-05-15T12:23:24;19.20;99.90
46732;DHT22;32477;51.474;5.696;2023-05-15T12:25:52;19.20;99.90
46732;DHT22;32477;51.474;5.696;2023-05-15T12:28:19;19.20;99.90
46732;DHT22;32477;51.474;5.696;2023-05-15T12:30:46;18.70;99.90
46732;DHT22;32477;51.474;5.696;2023-05-15T12:33:12;18.70;99.90
46732;DHT22;32477;51.474;5.696;2023-05-15T12:35:42;18.50;99.90
46732;DHT22;32477;51.474;5.696;2023-05-15T12:38:13;18.30;99.90
46732;DHT22;32477;51.474;5.696;2023-05-15T12:40:45;18.10;99.90
46732;DHT22;32477;51.474;5.696;2023-05-15T12:43:12;18.20;99.90
46732;DHT22;32477;51.474;5.696;2023-05-15T12:45:38;18.20;99.90
46732;DHT22;32477;51.474;5.696;2023-05-15T12:48:05;17.80;99.90
46732;DHT22;32477;51.474;5.696;2023-05-15T12:50:33;18.00;99.90
46732;DHT22;32477;51.474;5.696;2023-05-15T12:53:03;18.20;99.90
46732;DHT22;32477;51.474;5.696;2023-05-15T12:55:31;18.10;99.90
46732;DHT22;32477;51.474;5.696;2023-05-15T12:58:03;18.10;99.90
46732;DHT22;32477;51.474;5.696;2023-05-15T13:00:32;17.90;99.90
46732;DHT22;32477;51.474;5.696;2023-05-15T13:02:58;18.10;99.90
46732;DHT22;32477;51.474;5.696;2023-05-15T13:05:34;18.20;99.90
46732;DHT22;32477;51.474;5.696;2023-05-15T13:08:02;18.60;99.90
46732;DHT22;32477;51.474;5.696;2023-05-15T13:10:31;18.90;99.90
46732;DHT22;32477;51.474;5.696;2023-05-15T13:12:57;19.10;99.90
46732;DHT22;32477;51.474;5.696;2023-05-15T13:18:04;19.20;99.90
46732;DHT22;32477;51.474;5.696;2023-05-15T13:20:44;18.90;99.90
46732;DHT22;32477;51.474;5.696;2023-05-15T13:23:12;18.50;99.90
46732;DHT22;32477;51.474;5.696;2023-05-15T13:25:39;18.50;99.90
46732;DHT22;32477;51.474;5.696;2023-05-15T13:28:05;19.20;99.90
46732;DHT22;32477;51.474;5.696;2023-05-15T13:30:33;20.20;99.90
46732;DHT22;32477;51.474;5.696;2023-05-15T13:32:59;21.20;99.90
46732;DHT22;32477;51.474;5.696;2023-05-15T13:35:26;21.00;99.90
46732;DHT22;32477;51.474;5.696;2023-05-15T13:37:51;21.30;99.90
46732;DHT22;32477;51.474;5.696;2023-05-15T13:40:17;21.90;99.90
46732;DHT22;32477;51.474;5.696;2023-05-15T13:42:43;21.80;99.90
46732;DHT22;32477;51.474;5.696;2023-05-15T13:45:13;21.40;99.90
46732;DHT22;32477;51.474;5.696;2023-05-15T13:47:41;21.20;99.90
46732;DHT22;32477;51.474;5.696;2023-05-15T13:50:08;20.90;99.90
46732;DHT22;32477;51.474;5.696;2023-05-15T13:52:35;20.70;99.90
46732;DHT22;32477;51.474;5.696;2023-05-15T13:55:01;20.50;99.90
46732;DHT22;32477;51.474;5.696;2023-05-15T13:57:27;20.50;99.90
46732;DHT22;32477;51.474;5.696;2023-05-15T13:59:53;21.60;99.90
46732;DHT22;32477;51.474;5.696;2023-05-15T14:02:20;22.20;99.90
46732;DHT22;32477;51.474;5.696;2023-05-15T14:04:47;22.00;99.90
46732;DHT22;32477;51.474;5.696;2023-05-15T14:07:13;21.60;99.90
46732;DHT22;32477;51.474;5.696;2023-05-15T14:09:39;21.20;99.90
46732;DHT22;32477;51.474;5.696;2023-05-15T14:12:04;20.90;99.90
46732;DHT22;32477;51.474;5.696;2023-05-15T14:14:30;20.60;99.90
46732;DHT22;32477;51.474;5.696;2023-05-15T14:16:55;20.70;99.90
46732;DHT22;32477;51.474;5.696;2023-05-15T14:19:21;20.80;99.90
46732;DHT22;32477;51.474;5.696;2023-05-15T14:21:47;20.40;99.90
46732;DHT22;32477;51.474;5.696;2023-05-15T14:24:13;20.40;99.90
46732;DHT22;32477;51.474;5.696;2023-05-15T14:26:38;20.20;99.90
46732;DHT22;32477;51.474;5.696;2023-05-15T14:29:04;19.80;99.90
46732;DHT22;32477;51.474;5.696;2023-05-15T14:31:30;19.10;99.90
46732;DHT22;32477;51.474;5.696;2023-05-15T14:33:55;18.80;99.90
46732;DHT22;32477;51.474;5.696;2023-05-15T14:36:21;18.50;99.90
46732;DHT22;32477;51.474;5.696;2023-05-15T14:38:47;18.10;99.90
46732;DHT22;32477;51.474;5.696;2023-05-15T14:41:13;17.60;99.90
46732;DHT22;32477;51.474;5.696;2023-05-15T14:43:39;17.30;99.90
46732;DHT22;32477;51.474;5.696;2023-05-15T14:46:05;17.00;99.90
46732;DHT22;32477;51.474;5.696;2023-05-15T14:48:31;16.70;99.90
46732;DHT22;32477;51.474;5.696;2023-05-15T14:50:58;16.30;99.90
46732;DHT22;32477;51.474;5.696;2023-05-15T14:53:24;16.00;99.90
46732;DHT22;32477;51.474;5.696;2023-05-15T14:55:50;15.70;99.90
46732;DHT22;32477;51.474;5.696;2023-05-15T14:58:16;15.60;99.90
46732;DHT22;32477;51.474;5.696;2023-05-15T15:00:41;15.50;99.90
46732;DHT22;32477;51.474;5.696;2023-05-15T15:03:09;15.60;99.90
46732;DHT22;32477;51.474;5.696;2023-05-15T15:05:34;16.00;99.90
46732;DHT22;32477;51.474;5.696;2023-05-15T15:08:05;16.50;99.90
46732;DHT22;32477;51.474;5.696;2023-05-15T15:10:32;16.80;99.90
46732;DHT22;32477;51.474;5.696;2023-05-15T15:12:58;17.00;99.90
46732;DHT22;32477;51.474;5.696;2023-05-15T15:15:24;17.50;99.90
46732;DHT22;32477;51.474;5.696;2023-05-15T15:17:50;17.60;99.90
46732;DHT22;32477;51.474;5.696;2023-05-15T15:20:18;17.30;99.90
46732;DHT22;32477;51.474;5.696;2023-05-15T15:22:44;17.10;99.90
46732;DHT22;32477;51.474;5.696;2023-05-15T15:25:10;17.00;99.90
46732;DHT22;32477;51.474;5.696;2023-05-15T15:27:36;16.90;99.90
46732;DHT22;32477;51.474;5.696;2023-05-15T15:30:06;16.80;99.90
46732;DHT22;32477;51.474;5.696;2023-05-15T15:32:33;16.90;99.90
46732;DHT22;32477;51.474;5.696;2023-05-15T15:34:59;17.30;99.90
46732;DHT22;32477;51.474;5.696;2023-05-15T15:37:26;17.60;99.90
46732;DHT22;32477;51.474;5.696;2023-05-15T15:39:54;17.50;99.90
46732;DHT22;32477;51.474;5.696;2023-05-15T15:42:19;17.60;99.90
46732;DHT22;32477;51.474;5.696;2023-05-15T15:44:48;17.60;99.90
46732;DHT22;32477;51.474;5.696;2023-05-15T15:47:13;17.80;99.90
46732;DHT22;32477;51.474;5.696;2023-05-15T15:49:39;18.10;99.90
46732;DHT22;32477;51.474;5.696;2023-05-15T15:52:06;18.00;99.90
46732;DHT22;32477;51.474;5.696;2023-05-15T15:54:31;18.10;99.90
46732;DHT22;32477;51.474;5.696;2023-05-15T15:56:58;17.70;99.90
46732;DHT22;32477;51.474;5.696;2023-05-15T15:59:23;17.70;99.90
46732;DHT22;32477;51.474;5.696;2023-05-15T16:01:49;17.70;99.90